Time;durP1;ratioP1;P1;durP2;ratioP2;P2;SDS_P1;SDS_P2;PMS_P1;PMS_P2;Temp;Humidity;BMP_temperature;BMP_pressure;BME280_temperature;BME280_humidity;BME280_pressure;Samples;Min_cycle;Max_cycle;Signal;HPM_P1;HPM_P2
2023/04/07 11:36:38;;;;;;;11.85;8.48;;;;;;;;;;5089115;27;20390;-67
2023/04/07 11:39:03;;;;;;;12.48;8.05;;;;;;;;;;5086066;28;20115;-67
2023/04/07 11:41:31;;;;;;;12.32;8.30;;;;;;;;;;5086986;28;20528;-68
2023/04/07 11:44:10;;;;;;;10.52;7.32;;;;;;;;;;5077623;28;20484;-68
2023/04/07 11:46:52;;;;;;;10.98;7.70;;;;;;;;;;5080781;28;20473;-67
2023/04/07 11:49:17;;;;;;;9.30;6.70;;;;;;;;;;5084107;28;20501;-65
2023/04/07 11:51:44;;;;;;;9.57;6.78;;;;;;;;;;5089098;28;20074;-64
2023/04/07 11:54:10;;;;;;;9.15;6.32;;;;;;;;;;5088319;28;20032;-66
2023/04/07 11:56:43;;;;;;;10.43;6.63;;;;;;;;;;5087146;28;20032;-68
2023/04/07 11:59:19;;;;;;;7.97;5.93;;;;;;;;;;5075881;28;20028;-65
2023/04/07 12:01:44;;;;;;;8.20;5.53;;;;;;;;;;5086930;28;20031;-64
2023/04/07 12:04:13;;;;;;;8.63;6.25;;;;;;;;;;5085022;28;20029;-67
2023/04/07 12:06:40;;;;;;;7.57;5.20;;;;;;;;;;5083695;28;20464;-67
2023/04/07 12:09:06;;;;;;;8.77;5.70;;;;;;;;;;5084622;28;20070;-65
2023/04/07 12:11:33;;;;;;;6.65;5.15;;;;;;;;;;5072175;28;20024;-64
2023/04/07 12:13:59;;;;;;;7.13;4.57;;;;;;;;;;5085441;28;20029;-64
2023/04/07 12:16:25;;;;;;;7.10;5.05;;;;;;;;;;5085364;28;20036;-66
2023/04/07 12:18:51;;;;;;;8.05;5.60;;;;;;;;;;5085914;28;20039;-62
2023/04/07 12:21:17;;;;;;;7.32;5.25;;;;;;;;;;5084857;28;20028;-62
2023/04/07 12:23:44;;;;;;;5.75;4.35;;;;;;;;;;5085767;28;20039;-63
2023/04/07 12:26:10;;;;;;;6.50;4.35;;;;;;;;;;5087374;28;20035;-63
2023/04/07 12:28:36;;;;;;;6.60;4.82;;;;;;;;;;5086387;28;20036;-63
2023/04/07 12:31:02;;;;;;;6.20;4.38;;;;;;;;;;5077841;28;20039;-63
2023/04/07 12:33:27;;;;;;;7.03;4.63;;;;;;;;;;5076125;28;20025;-63
2023/04/07 12:35:53;;;;;;;5.65;4.50;;;;;;;;;;5077399;28;20488;-64
2023/04/07 12:38:20;;;;;;;6.82;4.68;;;;;;;;;;5074627;28;20052;-64
2023/04/07 12:40:45;;;;;;;6.85;4.70;;;;;;;;;;5072483;28;20033;-62
2023/04/07 12:43:11;;;;;;;5.57;4.10;;;;;;;;;;5071838;28;20032;-63
2023/04/07 12:45:36;;;;;;;5.25;4.03;;;;;;;;;;5071682;28;20058;-63
2023/04/07 12:48:02;;;;;;;6.28;4.45;;;;;;;;;;5061487;28;20036;-63
2023/04/07 12:50:29;;;;;;;5.18;4.13;;;;;;;;;;5071183;28;20033;-62
2023/04/07 12:52:55;;;;;;;6.15;4.63;;;;;;;;;;5069702;28;20032;-63
2023/04/07 12:55:21;;;;;;;5.90;4.57;;;;;;;;;;5065185;28;20470;-63
2023/04/07 12:57:47;;;;;;;6.10;4.57;;;;;;;;;;5072878;28;20059;-64
2023/04/07 13:00:13;;;;;;;6.13;4.20;;;;;;;;;;5069366;28;20090;-65
2023/04/07 13:02:39;;;;;;;5.97;4.43;;;;;;;;;;5074183;28;20485;-64
2023/04/07 13:05:04;;;;;;;6.65;4.78;;;;;;;;;;5065847;28;20033;-63
2023/04/07 13:07:30;;;;;;;6.80;4.63;;;;;;;;;;5072613;28;20032;-63
2023/04/07 13:09:56;;;;;;;6.28;4.63;;;;;;;;;;5061695;28;20367;-63
2023/04/07 13:12:22;;;;;;;6.20;5.00;;;;;;;;;;5052876;28;20036;-63
2023/04/07 13:14:48;;;;;;;6.28;4.78;;;;;;;;;;5069919;28;20386;-63
2023/04/07 13:17:14;;;;;;;6.55;5.00;;;;;;;;;;5061606;28;20040;-63
2023/04/07 13:19:39;;;;;;;6.18;4.80;;;;;;;;;;5057802;28;20393;-62
2023/04/07 13:22:05;;;;;;;6.28;4.80;;;;;;;;;;5072784;28;20258;-63
2023/04/07 13:24:31;;;;;;;7.00;5.10;;;;;;;;;;5072782;28;20032;-63
2023/04/07 13:26:56;;;;;;;6.68;5.30;;;;;;;;;;5067367;28;20039;-64
2023/04/07 13:29:22;;;;;;;7.10;5.38;;;;;;;;;;5068728;28;20032;-63
2023/04/07 13:31:48;;;;;;;7.38;5.57;;;;;;;;;;5071628;28;20028;-64
2023/04/07 13:34:14;;;;;;;7.63;5.65;;;;;;;;;;5071669;28;20115;-64
2023/04/07 13:36:40;;;;;;;6.75;5.43;;;;;;;;;;5072003;28;20032;-64
2023/04/07 13:39:06;;;;;;;7.28;5.80;;;;;;;;;;5068193;28;20048;-63
2023/04/07 13:41:32;;;;;;;7.13;5.63;;;;;;;;;;5052765;28;20033;-62
2023/04/07 13:43:57;;;;;;;8.43;6.38;;;;;;;;;;5051534;28;20484;-64
2023/04/07 13:46:23;;;;;;;8.23;6.32;;;;;;;;;;5053415;28;20477;-63
2023/04/07 13:48:49;;;;;;;8.90;6.00;;;;;;;;;;5068330;28;20033;-63
2023/04/07 13:51:15;;;;;;;8.18;6.40;;;;;;;;;;5072308;28;20075;-63
2023/04/07 13:53:40;;;;;;;9.30;6.97;;;;;;;;;;5065546;28;20471;-65
2023/04/07 13:56:07;;;;;;;9.32;6.82;;;;;;;;;;5062011;28;20120;-63
2023/04/07 13:58:33;;;;;;;10.48;7.70;;;;;;;;;;5065896;28;20516;-65
2023/04/07 14:00:59;;;;;;;9.85;7.97;;;;;;;;;;5070324;28;20028;-64
2023/04/07 14:03:24;;;;;;;10.93;8.25;;;;;;;;;;5071553;28;20086;-63
2023/04/07 14:05:49;;;;;;;10.20;8.02;;;;;;;;;;5071272;28;20028;-63
2023/04/07 14:08:16;;;;;;;10.73;8.30;;;;;;;;;;5062739;28;20029;-62
2023/04/07 14:10:42;;;;;;;11.68;8.30;;;;;;;;;;5067491;28;20028;-63
2023/04/07 14:13:07;;;;;;;10.02;8.15;;;;;;;;;;5068936;28;20155;-64
2023/04/07 14:15:33;;;;;;;11.43;8.23;;;;;;;;;;5072311;28;20032;-65
2023/04/07 14:17:59;;;;;;;10.05;8.10;;;;;;;;;;5069376;28;20090;-65
2023/04/07 14:20:25;;;;;;;12.48;8.20;;;;;;;;;;5067019;28;20473;-65
2023/04/07 14:22:51;;;;;;;10.05;8.02;;;;;;;;;;5069073;28;20067;-63
2023/04/07 14:25:16;;;;;;;9.93;7.65;;;;;;;;;;5063673;28;20084;-67
2023/04/07 14:27:42;;;;;;;10.00;7.28;;;;;;;;;;5071891;28;20036;-64
2023/04/07 14:30:08;;;;;;;11.70;7.45;;;;;;;;;;5060523;28;20491;-63
2023/04/07 14:32:33;;;;;;;9.75;7.30;;;;;;;;;;5063041;28;20029;-65
2023/04/07 14:34:59;;;;;;;9.70;7.20;;;;;;;;;;5069416;28;20048;-64
2023/04/07 14:37:25;;;;;;;11.18;6.68;;;;;;;;;;5067204;28;20037;-64
2023/04/07 14:39:52;;;;;;;9.25;6.82;;;;;;;;;;5069612;28;20041;-63
2023/04/07 14:42:18;;;;;;;8.30;6.45;;;;;;;;;;5054469;28;20029;-66
2023/04/07 14:44:43;;;;;;;8.35;6.30;;;;;;;;;;5062219;28;20535;-65
2023/04/07 14:47:08;;;;;;;8.30;6.53;;;;;;;;;;5069565;28;20060;-65
2023/04/07 14:49:34;;;;;;;10.65;6.50;;;;;;;;;;5069599;28;20397;-64
2023/04/07 14:51:59;;;;;;;9.18;7.03;;;;;;;;;;5071277;28;20037;-64
2023/04/07 14:54:24;;;;;;;9.68;7.07;;;;;;;;;;5061644;28;20124;-64
2023/04/07 14:56:50;;;;;;;8.82;6.68;;;;;;;;;;5051358;28;20112;-64
2023/04/07 14:59:15;;;;;;;7.75;6.25;;;;;;;;;;5059061;28;20037;-64
2023/04/07 15:01:41;;;;;;;8.45;6.55;;;;;;;;;;5071075;28;20024;-64
2023/04/07 15:04:06;;;;;;;9.57;7.07;;;;;;;;;;5062426;28;20402;-64
2023/04/07 15:06:32;;;;;;;17.10;9.98;;;;;;;;;;5071478;28;20040;-64
2023/04/07 15:08:57;;;;;;;20.23;12.65;;;;;;;;;;5069143;28;20394;-63
2023/04/07 15:11:23;;;;;;;15.73;11.20;;;;;;;;;;5071097;28;20032;-65
2023/04/07 15:13:48;;;;;;;33.13;19.83;;;;;;;;;;5070174;28;20033;-65
2023/04/07 15:16:14;;;;;;;14.10;9.10;;;;;;;;;;5070782;28;20161;-65
2023/04/07 15:18:43;;;;;;;11.75;8.07;;;;;;;;;;5067166;28;20040;-65
2023/04/07 15:21:10;;;;;;;9.00;7.10;;;;;;;;;;5067194;28;20024;-64
2023/04/07 15:23:40;;;;;;;8.85;6.80;;;;;;;;;;5071470;28;20393;-63
2023/04/07 15:26:06;;;;;;;9.88;7.32;;;;;;;;;;5069919;28;20568;-64
2023/04/07 15:28:32;;;;;;;8.52;6.93;;;;;;;;;;5071546;28;20067;-63
2023/04/07 15:30:58;;;;;;;11.88;7.97;;;;;;;;;;5060245;28;20057;-63
2023/04/07 15:33:23;;;;;;;9.45;7.32;;;;;;;;;;5071681;28;20032;-63
2023/04/07 15:35:49;;;;;;;9.57;7.13;;;;;;;;;;5071048;28;20355;-63
2023/04/07 15:38:15;;;;;;;9.73;7.15;;;;;;;;;;5070243;28;20116;-64
2023/04/07 15:40:41;;;;;;;11.27;7.55;;;;;;;;;;5071009;28;20396;-64
2023/04/07 15:43:09;;;;;;;10.45;7.68;;;;;;;;;;5069267;28;20033;-64
2023/04/07 15:45:36;;;;;;;8.65;7.05;;;;;;;;;;5071611;28;20043;-63
2023/04/07 15:48:02;;;;;;;10.35;7.80;;;;;;;;;;5068730;28;20470;-64
2023/04/07 15:50:29;;;;;;;11.20;7.90;;;;;;;;;;5059898;28;20068;-64
2023/04/07 15:52:54;;;;;;;9.48;7.68;;;;;;;;;;5064393;28;20056;-64
2023/04/07 15:55:19;;;;;;;9.55;7.50;;;;;;;;;;5067772;28;20060;-63
2023/04/07 15:57:45;;;;;;;9.02;7.32;;;;;;;;;;5070260;28;20445;-65
2023/04/07 16:00:10;;;;;;;9.70;7.70;;;;;;;;;;5070587;28;20025;-63
2023/04/07 16:02:36;;;;;;;9.77;7.43;;;;;;;;;;5068748;28;20440;-65
2023/04/07 16:05:02;;;;;;;9.52;7.88;;;;;;;;;;5068426;28;20036;-64
2023/04/07 16:07:27;;;;;;;10.60;7.57;;;;;;;;;;5066366;28;20033;-64
2023/04/07 16:09:53;;;;;;;9.43;7.38;;;;;;;;;;5063922;28;20047;-65
2023/04/07 16:12:18;;;;;;;9.43;7.70;;;;;;;;;;5070055;28;20122;-63
2023/04/07 16:14:44;;;;;;;9.85;7.82;;;;;;;;;;5075313;28;20116;-64
2023/04/07 16:17:10;;;;;;;11.10;7.75;;;;;;;;;;5071771;28;20138;-64
2023/04/07 16:19:36;;;;;;;11.25;7.72;;;;;;;;;;5069866;28;20028;-64
2023/04/07 16:22:01;;;;;;;10.88;8.20;;;;;;;;;;5054388;28;20040;-64
2023/04/07 16:24:26;;;;;;;10.18;7.93;;;;;;;;;;5074153;28;20029;-67
2023/04/07 16:26:52;;;;;;;9.32;6.88;;;;;;;;;;5050927;28;20095;-65
2023/04/07 16:29:18;;;;;;;8.95;7.28;;;;;;;;;;5072839;28;20705;-65
2023/04/07 16:31:44;;;;;;;10.60;7.93;;;;;;;;;;5072894;28;20445;-67
2023/04/07 16:34:11;;;;;;;9.23;7.40;;;;;;;;;;5073811;28;20024;-65
2023/04/07 16:36:36;;;;;;;9.55;7.28;;;;;;;;;;5070691;28;20111;-64
2023/04/07 16:39:02;;;;;;;8.90;7.53;;;;;;;;;;5071908;28;20116;-65
2023/04/07 16:41:28;;;;;;;9.45;7.15;;;;;;;;;;5069867;28;20075;-65
2023/04/07 16:43:53;;;;;;;10.50;8.13;;;;;;;;;;5074331;28;20029;-64
2023/04/07 16:46:19;;;;;;;11.13;8.38;;;;;;;;;;5068792;28;20029;-64
2023/04/07 16:48:45;;;;;;;11.60;8.45;;;;;;;;;;5074494;28;20162;-65
2023/04/07 16:51:15;;;;;;;8.88;7.10;;;;;;;;;;5073274;28;20436;-66
2023/04/07 16:53:41;;;;;;;12.18;8.15;;;;;;;;;;5074495;28;20366;-64
2023/04/07 16:56:17;;;;;;;11.73;8.65;;;;;;;;;;5069879;28;20033;-64
2023/04/07 16:58:42;;;;;;;10.82;8.20;;;;;;;;;;5074298;28;20064;-65
2023/04/07 17:01:08;;;;;;;11.23;7.88;;;;;;;;;;5072964;28;20063;-65
2023/04/07 17:03:33;;;;;;;10.25;8.25;;;;;;;;;;5071998;28;20036;-65
2023/04/07 17:06:04;;;;;;;10.55;8.50;;;;;;;;;;5073086;28;20453;-65
2023/04/07 17:08:38;;;;;;;12.52;9.85;;;;;;;;;;5073853;28;20029;-65
2023/04/07 17:11:05;;;;;;;12.57;9.80;;;;;;;;;;5071796;28;20028;-67
2023/04/07 17:13:31;;;;;;;15.88;11.52;;;;;;;;;;5068919;28;20033;-65
2023/04/07 17:15:56;;;;;;;13.68;10.85;;;;;;;;;;5067364;28;20077;-66
2023/04/07 17:18:21;;;;;;;13.95;10.57;;;;;;;;;;5060178;28;20501;-65
2023/04/07 17:20:47;;;;;;;14.73;10.88;;;;;;;;;;5064551;28;20033;-65
2023/04/07 17:23:13;;;;;;;12.63;9.68;;;;;;;;;;5071849;28;20394;-65
2023/04/07 17:25:38;;;;;;;12.60;9.30;;;;;;;;;;5071587;28;20071;-66
2023/04/07 17:28:04;;;;;;;13.88;9.65;;;;;;;;;;5067487;28;20040;-66
2023/04/07 17:30:30;;;;;;;12.52;9.40;;;;;;;;;;5072172;28;20035;-66
2023/04/07 17:32:55;;;;;;;17.95;10.90;;;;;;;;;;5069762;28;20036;-65
2023/04/07 17:35:21;;;;;;;17.23;11.32;;;;;;;;;;5065548;28;20720;-64
2023/04/07 17:37:47;;;;;;;15.75;11.30;;;;;;;;;;5079882;28;20099;-64
2023/04/07 17:40:12;;;;;;;15.55;11.88;;;;;;;;;;5091988;28;20146;-65
2023/04/07 17:42:38;;;;;;;15.95;12.15;;;;;;;;;;5070312;28;20130;-65
2023/04/07 17:45:05;;;;;;;14.07;10.57;;;;;;;;;;5070087;28;20155;-64
2023/04/07 17:47:31;;;;;;;11.85;9.07;;;;;;;;;;5072469;28;20107;-64
2023/04/07 17:49:56;;;;;;;11.85;9.07;;;;;;;;;;5071968;28;20115;-65
2023/04/07 17:52:22;;;;;;;12.68;9.98;;;;;;;;;;5072817;28;20050;-65
2023/04/07 17:54:47;;;;;;;14.90;10.25;;;;;;;;;;5071598;28;20060;-64
2023/04/07 17:57:13;;;;;;;14.27;10.27;;;;;;;;;;5069246;28;20063;-64
2023/04/07 17:59:39;;;;;;;12.80;9.43;;;;;;;;;;5057978;28;20087;-64
2023/04/07 18:02:07;;;;;;;13.40;10.10;;;;;;;;;;5092811;28;20024;-64
2023/04/07 18:04:34;;;;;;;14.38;10.25;;;;;;;;;;5085888;28;20039;-65
2023/04/07 18:06:59;;;;;;;15.35;10.80;;;;;;;;;;5072738;28;20052;-65
2023/04/07 18:09:25;;;;;;;13.65;10.07;;;;;;;;;;5087880;28;20529;-64
2023/04/07 18:11:50;;;;;;;14.50;10.60;;;;;;;;;;5084983;28;20489;-65
2023/04/07 18:14:16;;;;;;;13.02;9.88;;;;;;;;;;5070294;28;20028;-65
2023/04/07 18:16:41;;;;;;;15.40;10.57;;;;;;;;;;5079478;28;20047;-64
2023/04/07 18:19:07;;;;;;;13.40;9.98;;;;;;;;;;5092696;28;20438;-64
2023/04/07 18:21:34;;;;;;;14.95;10.60;;;;;;;;;;5091493;28;20028;-66
2023/04/07 18:23:59;;;;;;;15.38;10.38;;;;;;;;;;5092550;28;20388;-61
2023/04/07 18:26:25;;;;;;;14.38;9.52;;;;;;;;;;5074300;28;20028;-62
2023/04/07 18:28:50;;;;;;;11.75;9.05;;;;;;;;;;5071549;28;20029;-62
2023/04/07 18:31:16;;;;;;;15.13;12.20;;;;;;;;;;5066120;28;20025;-60
2023/04/07 18:33:41;;;;;;;15.05;10.60;;;;;;;;;;5076249;28;20063;-62
2023/04/07 18:36:07;;;;;;;13.77;10.52;;;;;;;;;;5090217;28;20048;-61
2023/04/07 18:38:34;;;;;;;17.02;12.35;;;;;;;;;;5073239;28;20032;-61
2023/04/07 18:41:00;;;;;;;18.73;13.65;;;;;;;;;;5072568;28;20064;-61
2023/04/07 18:43:26;;;;;;;20.17;13.30;;;;;;;;;;5088938;28;20288;-62
2023/04/07 18:45:52;;;;;;;17.00;11.77;;;;;;;;;;5079423;28;20036;-60
2023/04/07 18:48:18;;;;;;;15.80;11.40;;;;;;;;;;5072275;28;20036;-61
2023/04/07 18:50:48;;;;;;;19.33;11.23;;;;;;;;;;5066038;28;20029;-62
2023/04/07 18:53:14;;;;;;;15.32;10.68;;;;;;;;;;5051299;28;20025;-62
2023/04/07 18:55:40;;;;;;;14.40;10.38;;;;;;;;;;5055303;28;20029;-60
2023/04/07 18:58:07;;;;;;;12.45;9.32;;;;;;;;;;5090724;28;20085;-61
2023/04/07 19:00:33;;;;;;;16.67;11.18;;;;;;;;;;5074597;28;20024;-61
2023/04/07 19:02:58;;;;;;;16.13;10.95;;;;;;;;;;5071518;28;20081;-62
2023/04/07 19:05:24;;;;;;;17.33;12.40;;;;;;;;;;5071507;28;20029;-60
2023/04/07 19:07:49;;;;;;;16.45;12.07;;;;;;;;;;5071925;28;20028;-62
2023/04/07 19:10:15;;;;;;;15.32;11.30;;;;;;;;;;5070385;28;20032;-60
2023/04/07 19:12:40;;;;;;;15.57;11.82;;;;;;;;;;5077814;28;20028;-59
2023/04/07 19:15:06;;;;;;;15.10;10.95;;;;;;;;;;5091970;28;20464;-60
2023/04/07 19:17:32;;;;;;;15.68;11.13;;;;;;;;;;5074006;28;20039;-60
2023/04/07 19:19:57;;;;;;;15.85;11.23;;;;;;;;;;5070732;28;20142;-61
2023/04/07 19:22:22;;;;;;;16.42;12.10;;;;;;;;;;5070892;28;20075;-61
2023/04/07 19:24:48;;;;;;;18.95;13.80;;;;;;;;;;5070890;28;20036;-62
2023/04/07 19:27:13;;;;;;;15.32;11.80;;;;;;;;;;5069951;28;20470;-60
2023/04/07 19:29:39;;;;;;;14.98;10.57;;;;;;;;;;5071582;28;20028;-60
2023/04/07 19:32:04;;;;;;;13.88;10.82;;;;;;;;;;5071889;28;20028;-60
2023/04/07 19:34:30;;;;;;;16.58;11.70;;;;;;;;;;5087360;28;20634;-62
2023/04/07 19:36:56;;;;;;;16.15;11.73;;;;;;;;;;5081667;28;20040;-60
2023/04/07 19:39:21;;;;;;;18.40;13.10;;;;;;;;;;5069832;28;20064;-62
2023/04/07 19:41:47;;;;;;;15.27;11.75;;;;;;;;;;5050264;28;20110;-60
2023/04/07 19:44:13;;;;;;;18.30;12.23;;;;;;;;;;5057030;28;20539;-62
2023/04/07 19:46:39;;;;;;;18.33;13.00;;;;;;;;;;5073578;28;20036;-61
2023/04/07 19:49:05;;;;;;;20.98;15.25;;;;;;;;;;5075698;28;20039;-61
2023/04/07 19:51:31;;;;;;;19.48;13.80;;;;;;;;;;5074696;28;20115;-62
2023/04/07 19:53:57;;;;;;;16.83;13.23;;;;;;;;;;5074272;28;20447;-61
2023/04/07 19:56:23;;;;;;;19.30;13.48;;;;;;;;;;5074385;28;20068;-61
2023/04/07 19:58:49;;;;;;;17.08;12.77;;;;;;;;;;5075308;28;20039;-60
2023/04/07 20:01:17;;;;;;;18.75;13.95;;;;;;;;;;5075024;28;20029;-61
2023/04/07 20:03:43;;;;;;;17.65;12.80;;;;;;;;;;5075301;28;20033;-60
2023/04/07 20:06:09;;;;;;;18.50;13.68;;;;;;;;;;5075133;28;20115;-61
2023/04/07 20:08:35;;;;;;;17.70;13.07;;;;;;;;;;5074197;28;20631;-62
2023/04/07 20:11:00;;;;;;;18.88;13.93;;;;;;;;;;5074574;28;20037;-62
2023/04/07 20:13:26;;;;;;;18.95;13.90;;;;;;;;;;5073748;28;20037;-62
2023/04/07 20:15:52;;;;;;;20.27;13.57;;;;;;;;;;5074618;28;20036;-62
2023/04/07 20:18:18;;;;;;;20.58;14.07;;;;;;;;;;5072521;28;20029;-62
2023/04/07 20:20:45;;;;;;;21.13;14.57;;;;;;;;;;5074516;28;20028;-62
2023/04/07 20:23:11;;;;;;;18.52;14.05;;;;;;;;;;5074523;28;20060;-62
2023/04/07 20:25:36;;;;;;;19.13;13.60;;;;;;;;;;5092576;28;20488;-60
2023/04/07 20:28:02;;;;;;;18.58;14.43;;;;;;;;;;5085581;28;20033;-63
2023/04/07 20:30:27;;;;;;;20.50;14.75;;;;;;;;;;5073940;28;20525;-62
2023/04/07 20:32:53;;;;;;;17.73;13.40;;;;;;;;;;5074834;28;20058;-62
2023/04/07 20:35:18;;;;;;;20.67;15.18;;;;;;;;;;5073496;28;20051;-61
2023/04/07 20:37:44;;;;;;;20.50;14.25;;;;;;;;;;5074634;28;20358;-61
2023/04/07 20:40:10;;;;;;;24.95;14.57;;;;;;;;;;5074576;28;20028;-61
2023/04/07 20:42:36;;;;;;;23.65;14.40;;;;;;;;;;5067389;28;20028;-62
2023/04/07 20:45:03;;;;;;;19.10;13.82;;;;;;;;;;5068507;28;20247;-62
2023/04/07 20:47:30;;;;;;;22.13;14.93;;;;;;;;;;5060437;28;20115;-62
2023/04/07 20:49:55;;;;;;;19.65;14.20;;;;;;;;;;5072326;28;20132;-62
2023/04/07 20:52:21;;;;;;;21.02;15.10;;;;;;;;;;5074707;28;20039;-63
2023/04/07 20:54:47;;;;;;;21.35;14.68;;;;;;;;;;5065822;28;20409;-60
2023/04/07 20:57:12;;;;;;;18.25;13.07;;;;;;;;;;5054943;28;20032;-63
2023/04/07 20:59:38;;;;;;;18.77;13.88;;;;;;;;;;5072351;28;20037;-62
2023/04/07 21:02:04;;;;;;;19.48;13.80;;;;;;;;;;5070906;28;20100;-62
2023/04/07 21:04:30;;;;;;;20.45;14.65;;;;;;;;;;5055993;28;20041;-62
2023/04/07 21:06:55;;;;;;;19.90;14.23;;;;;;;;;;5055747;28;20035;-61
2023/04/07 21:09:21;;;;;;;19.85;14.48;;;;;;;;;;5060239;28;20036;-61
2023/04/07 21:11:46;;;;;;;20.63;13.88;;;;;;;;;;5069545;28;20039;-61
2023/04/07 21:14:11;;;;;;;20.40;13.40;;;;;;;;;;5056133;28;20036;-62
2023/04/07 21:16:37;;;;;;;17.17;12.40;;;;;;;;;;5064707;28;20139;-62
2023/04/07 21:19:02;;;;;;;18.67;13.35;;;;;;;;;;5055294;28;20053;-63
2023/04/07 21:21:28;;;;;;;21.05;13.75;;;;;;;;;;5069878;28;20103;-60
2023/04/07 21:23:53;;;;;;;19.33;13.23;;;;;;;;;;5063381;28;20029;-61
2023/04/07 21:26:19;;;;;;;18.05;13.13;;;;;;;;;;5050882;28;20040;-62
2023/04/07 21:28:45;;;;;;;17.10;12.57;;;;;;;;;;5057193;28;20035;-62
2023/04/07 21:31:18;;;;;;;20.50;13.48;;;;;;;;;;5068363;28;20057;-62
2023/04/07 21:33:45;;;;;;;18.10;13.25;;;;;;;;;;5073389;28;20052;-62
2023/04/07 21:36:11;;;;;;;21.13;15.23;;;;;;;;;;5071455;28;20079;-60
2023/04/07 21:38:37;;;;;;;21.13;15.05;;;;;;;;;;5090442;28;20032;-61
2023/04/07 21:41:02;;;;;;;23.00;15.32;;;;;;;;;;5087180;28;20035;-62
2023/04/07 21:43:28;;;;;;;21.42;14.18;;;;;;;;;;5070644;28;20036;-62
2023/04/07 21:45:53;;;;;;;19.73;13.27;;;;;;;;;;5060261;28;20035;-61
2023/04/07 21:48:22;;;;;;;19.52;13.48;;;;;;;;;;5060481;28;20055;-63
2023/04/07 21:50:50;;;;;;;20.77;14.90;;;;;;;;;;5091314;28;20040;-61
2023/04/07 21:53:15;;;;;;;20.35;14.65;;;;;;;;;;5071753;28;20086;-62
2023/04/07 21:55:40;;;;;;;23.25;15.68;;;;;;;;;;5070776;28;20032;-61
2023/04/07 21:58:06;;;;;;;24.48;16.25;;;;;;;;;;5070594;28;20044;-62
2023/04/07 22:00:32;;;;;;;22.35;15.50;;;;;;;;;;5092536;28;20469;-62
2023/04/07 22:02:58;;;;;;;20.67;14.45;;;;;;;;;;5077489;28;20043;-62
2023/04/07 22:05:23;;;;;;;20.67;13.68;;;;;;;;;;5072097;28;20032;-61
2023/04/07 22:07:49;;;;;;;19.20;13.88;;;;;;;;;;5061115;28;20075;-61
2023/04/07 22:10:15;;;;;;;19.27;13.45;;;;;;;;;;5061491;28;21689;-61
2023/04/07 22:12:41;;;;;;;20.20;14.13;;;;;;;;;;5053753;28;20041;-61
2023/04/07 22:15:07;;;;;;;19.35;13.93;;;;;;;;;;5067245;28;20165;-61
2023/04/07 22:17:33;;;;;;;19.52;13.20;;;;;;;;;;5059658;28;20108;-61
2023/04/07 22:19:58;;;;;;;21.25;14.20;;;;;;;;;;5052855;28;20510;-62
2023/04/07 22:22:24;;;;;;;21.23;13.85;;;;;;;;;;5056651;28;20020;-63
2023/04/07 22:24:49;;;;;;;17.52;12.18;;;;;;;;;;5067600;28;20041;-61
2023/04/07 22:27:15;;;;;;;17.77;12.52;;;;;;;;;;5068899;28;20031;-61
2023/04/07 22:29:40;;;;;;;18.25;12.25;;;;;;;;;;5064070;28;20430;-61
2023/04/07 22:32:05;;;;;;;19.42;12.70;;;;;;;;;;5066306;28;20036;-61
2023/04/07 22:34:31;;;;;;;20.88;13.70;;;;;;;;;;5069278;28;20067;-63
2023/04/07 22:36:56;;;;;;;25.73;14.70;;;;;;;;;;5066556;28;20044;-62
2023/04/07 22:39:22;;;;;;;24.83;15.15;;;;;;;;;;5060989;28;20040;-62
2023/04/07 22:41:48;;;;;;;23.25;14.75;;;;;;;;;;5058842;28;20052;-61
2023/04/07 22:44:13;;;;;;;22.00;13.80;;;;;;;;;;5056228;28;20097;-62
2023/04/07 22:46:38;;;;;;;21.10;13.70;;;;;;;;;;5052707;28;20595;-61
2023/04/07 22:49:04;;;;;;;20.73;14.50;;;;;;;;;;5066496;28;20033;-61
2023/04/07 22:51:29;;;;;;;18.92;12.93;;;;;;;;;;5067055;28;20024;-61
2023/04/07 22:53:56;;;;;;;21.77;14.10;;;;;;;;;;5068714;28;20040;-61
2023/04/07 22:56:23;;;;;;;22.83;14.57;;;;;;;;;;5054361;28;20488;-63
2023/04/07 22:58:48;;;;;;;25.13;15.38;;;;;;;;;;5078436;28;20070;-62
2023/04/07 23:01:13;;;;;;;21.67;14.50;;;;;;;;;;5081079;28;20060;-61
2023/04/07 23:03:39;;;;;;;22.20;14.27;;;;;;;;;;5066979;28;20028;-62
2023/04/07 23:06:04;;;;;;;22.98;14.13;;;;;;;;;;5058679;28;20043;-62
2023/04/07 23:08:29;;;;;;;21.10;14.27;;;;;;;;;;5065825;28;20031;-62
2023/04/07 23:10:55;;;;;;;25.73;15.02;;;;;;;;;;5063187;28;20240;-61
2023/04/07 23:13:20;;;;;;;25.50;15.20;;;;;;;;;;5054126;28;20078;-62
2023/04/07 23:15:46;;;;;;;22.50;13.93;;;;;;;;;;5064787;28;20036;-61
2023/04/07 23:18:11;;;;;;;21.67;13.57;;;;;;;;;;5063283;28;20036;-62
2023/04/07 23:20:36;;;;;;;22.40;13.73;;;;;;;;;;5065053;28;20027;-61
2023/04/07 23:23:02;;;;;;;21.13;13.95;;;;;;;;;;5069220;28;20381;-61
2023/04/07 23:25:27;;;;;;;23.58;14.43;;;;;;;;;;5058977;28;20039;-62
2023/04/07 23:27:53;;;;;;;23.60;14.63;;;;;;;;;;5059116;28;20055;-61
2023/04/07 23:30:18;;;;;;;23.73;14.75;;;;;;;;;;5068029;28;20056;-61
2023/04/07 23:32:43;;;;;;;24.73;15.23;;;;;;;;;;5050391;28;20040;-67
2023/04/07 23:35:09;;;;;;;26.50;15.30;;;;;;;;;;5052884;28;20044;-62
2023/04/07 23:37:35;;;;;;;22.20;14.05;;;;;;;;;;5058127;28;20025;-61
2023/04/07 23:40:00;;;;;;;21.67;14.18;;;;;;;;;;5053304;28;20546;-61
2023/04/07 23:42:25;;;;;;;21.80;13.93;;;;;;;;;;5064027;28;20106;-61
2023/04/07 23:44:51;;;;;;;22.77;13.90;;;;;;;;;;5051908;28;20044;-61
2023/04/07 23:47:16;;;;;;;22.60;14.43;;;;;;;;;;5056591;28;20107;-61
2023/04/07 23:49:42;;;;;;;22.80;14.50;;;;;;;;;;5064666;28;20146;-62
2023/04/07 23:52:08;;;;;;;23.75;13.80;;;;;;;;;;5064792;28;20073;-61
2023/04/07 23:54:34;;;;;;;22.65;12.93;;;;;;;;;;5053338;28;20032;-61
2023/04/07 23:57:00;;;;;;;23.45;14.55;;;;;;;;;;5051027;28;20051;-62
2023/04/07 23:59:26;;;;;;;20.17;13.57;;;;;;;;;;5053936;28;20103;-61
